Peotone Weather

Nearby METAR Reports

 

KIGQ - Lansing, Illinois, USA
Distance from station: NE 19mi, 30km
Updated: Tue, 21-Aug-2018 3:55pm CDT
Overcast
Overcast
 Wind from N
Wind: N 14 mph , 22 km/h, Gust: 26 mph , 43 km/h
Temperature: 75°F , 24°C
Dew Point: 64°F , 18°C
Humidity: 69%
Barometer: 29.90 inHg , 1012.5 hPa
Clouds: Overcast
Cloud details: Partly cloudy 2400 ft
Mostly cloudy 4300 ft
Overcast 7000 ft
2018/08/21 20:55 KIGQ 212055Z AUTO 35012G23KT SCT024 BKN043 OVC070 24/18 A2990 RMK AO2 T02360176 PWINO
KIKK - Kankakee, Illinois, USA
Distance from station: S 19mi, 30km
Updated: Tue, 21-Aug-2018 3:55pm CDT
Mostly cloudy
Mostly cloudy
 Wind from N
Wind: N 16 mph , 26 km/h
Temperature: 77°F , 25°C
Dew Point: 63°F , 17°C
Humidity: 61%
Barometer: 29.91 inHg , 1012.9 hPa
Clouds: Mostly cloudy
Visibility: 10 miles , 16 km
Cloud details: Partly cloudy 3600 ft
Mostly cloudy 6500 ft
2018/08/21 20:55 KIKK 212055Z AUTO 36014KT 10SM SCT036 BKN065 25/17 A2991 RMK AO2 60009 T02480172
 
KSJC - Joliet, Illinois, USA
Distance from station: WNW 24mi, 38km
Updated: Tue, 21-Aug-2018 3:53pm CDT
Partly cloudy
Partly cloudy
 Wind from NNW
Wind: NNW 8 mph , 13 km/h
Temperature: 73°F , 23°C
Dew Point: 54°F , 12°C
Humidity: 50%
Barometer: 29.97 inHg , 1014.9 hPa
Clouds: Partly cloudy
Visibility: 9 miles , 14 km
Cloud details: Few Clouds 1100 ft
Partly cloudy 3400 ft
2018/08/21 20:53 KSJC 212053Z 33007KT 9SM FEW011 SCT034 23/12 A2997 RMK AO2 SLP148 FU SCT034 T02330122 58011
KLOT - Romeoville, Illinois, USA
Distance from station: NW 26mi, 41km
Updated: Tue, 21-Aug-2018 3:55pm CDT
Mostly cloudy
Mostly cloudy
 Wind from NNW
Wind: NNW 12 mph , 19 km/h, Gust: 16 mph , 26 km/h
Temperature: 77°F , 25°C
Dew Point: 64°F , 18°C
Humidity: 65%
Barometer: 29.92 inHg , 1013.2 hPa
Clouds: Mostly cloudy
Visibility: 10 miles , 16 km
Cloud details: Mostly cloudy 8000 ft
2018/08/21 20:55 KLOT 212055Z AUTO 34010G14KT 10SM BKN080 25/18 A2992 RMK AO2 T02450175
 
KMDW - Midway Airport Chicago, Illinois, USA
Distance from station: N 31mi, 50km
Updated: Tue, 21-Aug-2018 3:53pm CDT
Partly cloudy
Partly cloudy
 Wind from NNE
Wind: NNE 15 mph , 24 km/h
Temperature: 79°F , 26°C
Dew Point: 63°F , 17°C
Humidity: 58%
Barometer: 29.90 inHg , 1012.5 hPa
Clouds: Partly cloudy
Visibility: 9 miles , 14 km
Cloud details: Few Clouds 3000 ft
Partly cloudy 6000 ft
Partly cloudy 15000 ft
2018/08/21 20:53 KMDW 212053Z 02013KT 9SM FEW030 SCT060 SCT150 26/17 A2990 RMK AO2 PK WND 35026/2001 SLP115 T02610172 50009
KC09 - Morris, Illinois, USA
Distance from station: W 34mi, 54km
Updated: Tue, 21-Aug-2018 3:55pm CDT
Mostly cloudy
Mostly cloudy
 Wind from N
Wind: N 5 mph , 7 km/h
Temperature: 77°F , 25°C
Dew Point: 66°F , 19°C
Humidity: 69%
Barometer: 29.92 inHg , 1013.2 hPa
Clouds: Mostly cloudy
Visibility: 10 miles , 16 km
Cloud details: Mostly cloudy 7000 ft
2018/08/21 20:55 KC09 212055Z AUTO 35004KT 10SM BKN070 25/19 A2992 RMK AO2 T02500186

Metar display script from Saratoga-Weather.org